createdAt,value
2022-09-03T00:06:16.637Z,1012.9
2022-09-03T00:21:12.845Z,1012.7
2022-09-03T00:36:08.742Z,1012.8
2022-09-03T00:51:05.013Z,1012.6
2022-09-03T01:06:01.954Z,1012.8
2022-09-03T01:20:57.411Z,1012.8
2022-09-03T01:35:53.074Z,1012.8
2022-09-03T01:50:49.900Z,1012.7
2022-09-03T02:05:46.527Z,1012.6
2022-09-03T02:20:42.853Z,1012.6
2022-09-03T02:35:39.245Z,1012.5
2022-09-03T02:50:35.378Z,1012.5
2022-09-03T03:20:27.508Z,1012.4
2022-09-03T03:35:23.963Z,1012.3
2022-09-03T03:50:20.240Z,1012.4
2022-09-03T04:05:16.659Z,1012.4
2022-09-03T04:20:12.923Z,1012.4
2022-09-03T04:35:09.327Z,1012.3
2022-09-03T04:50:05.519Z,1012.4
2022-09-03T05:05:02.457Z,1012.4
2022-09-03T05:19:59.334Z,1012.3
2022-09-03T05:34:55.685Z,1012.4
2022-09-03T05:49:51.912Z,1012.3
2022-09-03T06:04:47.960Z,1012.5
2022-09-03T06:19:44.288Z,1012.5
2022-09-03T06:34:40.872Z,1012.7
2022-09-03T06:49:37.182Z,1012.7
2022-09-03T07:04:32.931Z,1012.8
2022-09-03T07:19:28.993Z,1012.8
2022-09-03T07:34:25.743Z,1012.9
2022-09-03T07:49:21.750Z,1013
2022-09-03T08:04:17.756Z,1013.1
2022-09-03T08:19:14.401Z,1013
2022-09-03T08:34:11.059Z,1013.1
2022-09-03T08:49:07.907Z,1013.1
2022-09-03T09:04:04.430Z,1013.2
2022-09-03T09:19:00.670Z,1013.2
2022-09-03T09:33:57.198Z,1013
2022-09-03T09:48:53.915Z,1013.1
2022-09-03T10:03:51.172Z,1013.1
2022-09-03T10:18:47.554Z,1013.1
2022-09-03T10:33:43.746Z,1013.2
2022-09-03T10:48:39.550Z,1013
2022-09-03T11:03:35.892Z,1013
2022-09-03T11:18:32.554Z,1012.7
2022-09-03T11:33:29.925Z,1012.6
2022-09-03T11:48:26.712Z,1012.4
2022-09-03T12:03:23.564Z,1012.4
2022-09-03T12:18:20.337Z,1012.2
2022-09-03T12:33:17.086Z,1012.2
2022-09-03T12:48:13.759Z,1012.2
2022-09-03T13:03:10.086Z,1012.1
2022-09-03T13:18:05.887Z,1012
2022-09-03T13:33:01.388Z,1011.9
2022-09-03T13:47:57.238Z,1011.9
2022-09-03T14:02:53.296Z,1011.9
2022-09-03T14:17:48.595Z,1011.8
2022-09-03T14:32:44.801Z,1011.7
2022-09-03T14:47:41.338Z,1011.8
2022-09-03T15:02:37.346Z,1011.8
2022-09-03T15:17:32.879Z,1012.2
2022-09-03T15:32:28.029Z,1012.8
2022-09-03T15:47:23.076Z,1013.3
2022-09-03T16:02:17.730Z,1013.3
2022-09-03T16:17:12.829Z,1013.4
2022-09-03T16:32:08.562Z,1013.6
2022-09-03T16:47:04.004Z,1013.6
2022-09-03T17:01:59.741Z,1013.6
2022-09-03T17:16:56.364Z,1013.5
2022-09-03T17:31:52.666Z,1013.5
2022-09-03T17:46:48.697Z,1013.5
2022-09-03T18:01:44.830Z,1013.6
2022-09-03T18:16:41.238Z,1013.6
2022-09-03T18:31:37.642Z,1013.7
2022-09-03T19:01:29.143Z,1014
2022-09-03T19:16:25.364Z,1014.2
2022-09-03T19:31:21.448Z,1014.5
2022-09-03T19:46:17.538Z,1014.6
2022-09-03T20:01:14.106Z,1014.7
2022-09-03T20:16:10.166Z,1014.9
2022-09-03T20:31:06.390Z,1014.9
2022-09-03T20:46:02.111Z,1015
2022-09-03T21:00:58.189Z,1014.9
2022-09-03T21:15:56.758Z,1015
2022-09-03T21:30:50.591Z,1015
2022-09-03T21:45:46.172Z,1015.1
2022-09-03T22:00:42.607Z,1015.3
2022-09-03T22:15:38.712Z,1015.4
2022-09-03T22:30:35.036Z,1015.4
2022-09-03T22:45:30.986Z,1015.3
2022-09-03T23:00:27.100Z,1015.5
2022-09-03T23:15:23.161Z,1015.6
2022-09-03T23:30:19.612Z,1015.7
2022-09-03T23:45:15.938Z,1015.9
